Time;durP1;ratioP1;P1;durP2;ratioP2;P2;SDS_P1;SDS_P2;PMS_P1;PMS_P2;Temp;Humidity;BMP_temperature;BMP_pressure;BME280_temperature;BME280_humidity;BME280_pressure;Samples;Min_cycle;Max_cycle;Signal;HPM_P1;HPM_P2
2021/10/26 00:01:32;;;;;;;14.18;10.88;;;11.60;91.50;;;;;;5016891;28;20293;-75
2021/10/26 00:03:58;;;;;;;12.43;10.07;;;11.60;91.60;;;;;;5016758;28;20319;-74
2021/10/26 00:06:26;;;;;;;16.27;11.07;;;11.60;91.50;;;;;;5016419;28;20210;-74
2021/10/26 00:08:55;;;;;;;12.38;10.77;;;11.60;91.90;;;;;;5016687;28;20292;-75
2021/10/26 00:11:21;;;;;;;11.85;10.00;;;11.60;91.90;;;;;;5017055;28;20226;-75
2021/10/26 00:13:50;;;;;;;12.88;10.48;;;11.60;91.90;;;;;;5016971;28;20243;-74
2021/10/26 00:16:16;;;;;;;13.52;10.25;;;11.70;92.00;;;;;;5024700;28;20238;-75
2021/10/26 00:18:43;;;;;;;12.68;10.18;;;11.70;92.00;;;;;;5034242;28;20249;-77
2021/10/26 00:21:10;;;;;;;13.45;10.45;;;11.70;91.80;;;;;;5036475;28;20282;-75
2021/10/26 00:23:37;;;;;;;11.00;9.60;;;11.70;91.90;;;;;;5035948;28;20246;-74
2021/10/26 00:26:04;;;;;;;16.15;11.00;;;11.70;91.90;;;;;;5027823;28;20837;-75
2021/10/26 00:28:32;;;;;;;13.77;10.32;;;11.70;92.00;;;;;;5027750;28;20219;-75
2021/10/26 00:31:01;;;;;;;12.07;10.48;;;11.70;92.00;;;;;;5028279;28;20238;-75
2021/10/26 00:33:28;;;;;;;12.63;10.13;;;11.60;91.90;;;;;;5028458;28;20291;-75
2021/10/26 00:35:55;;;;;;;12.10;10.32;;;11.70;92.10;;;;;;5028116;28;20337;-74
2021/10/26 00:38:22;;;;;;;11.43;9.57;;;11.70;92.20;;;;;;5023097;28;20277;-74
2021/10/26 00:40:50;;;;;;;10.20;9.13;;;11.70;92.70;;;;;;5022087;28;20243;-74
2021/10/26 00:43:17;;;;;;;11.30;9.50;;;11.70;92.50;;;;;;5022490;28;20246;-74
2021/10/26 00:45:44;;;;;;;13.57;9.60;;;11.80;92.40;;;;;;5005322;28;20204;-75
2021/10/26 00:48:12;;;;;;;11.10;9.32;;;11.80;92.00;;;;;;4997168;28;20218;-74
2021/10/26 00:50:39;;;;;;;11.43;9.55;;;11.70;92.10;;;;;;4997793;28;20222;-75
2021/10/26 00:53:06;;;;;;;12.70;9.85;;;11.70;92.20;;;;;;4998983;28;20218;-74
2021/10/26 00:55:33;;;;;;;10.20;9.18;;;11.80;92.60;;;;;;4999788;28;20231;-74
2021/10/26 00:58:00;;;;;;;14.85;10.23;;;11.80;92.60;;;;;;4997038;28;20216;-74
2021/10/26 01:00:27;;;;;;;10.60;9.20;;;11.80;92.50;;;;;;4996739;28;20636;-75
2021/10/26 01:02:54;;;;;;;12.95;9.90;;;11.80;92.20;;;;;;4997071;28;20716;-74
2021/10/26 01:05:22;;;;;;;14.75;11.50;;;11.80;92.60;;;;;;4996611;28;20597;-75
2021/10/26 01:07:49;;;;;;;13.10;9.82;;;11.80;92.80;;;;;;4996688;28;20212;-77
2021/10/26 01:10:16;;;;;;;14.40;9.82;;;11.70;92.80;;;;;;4997035;28;20211;-74
2021/10/26 01:12:44;;;;;;;11.45;9.73;;;11.80;92.80;;;;;;4997077;28;20243;-74
2021/10/26 01:15:11;;;;;;;11.95;10.40;;;11.70;92.70;;;;;;4996585;28;20213;-74
2021/10/26 01:17:38;;;;;;;13.32;10.13;;;11.70;93.30;;;;;;4995764;28;20208;-74
2021/10/26 01:20:08;;;;;;;12.27;10.35;;;11.70;93.50;;;;;;4996075;28;20551;-74
2021/10/26 01:22:39;;;;;;;15.15;10.63;;;11.70;93.40;;;;;;4995905;28;20248;-74
2021/10/26 01:25:08;;;;;;;13.07;10.00;;;11.70;93.40;;;;;;4995824;28;20227;-74
2021/10/26 01:27:35;;;;;;;12.93;10.18;;;11.70;93.50;;;;;;4995312;28;20217;-74
2021/10/26 01:30:02;;;;;;;13.32;10.32;;;11.70;93.80;;;;;;4994952;28;20622;-75
2021/10/26 01:32:29;;;;;;;11.02;9.95;;;11.70;93.80;;;;;;4995813;28;20671;-74
2021/10/26 01:34:56;;;;;;;12.00;9.95;;;11.70;93.80;;;;;;4995692;28;20652;-73
2021/10/26 01:37:24;;;;;;;12.02;10.70;;;11.60;93.90;;;;;;4996058;28;20214;-73
2021/10/26 01:39:51;;;;;;;13.80;9.50;;;11.60;94.30;;;;;;4995590;28;20785;-73
2021/10/26 01:42:20;;;;;;;11.02;9.27;;;11.50;94.80;;;;;;4995869;28;20738;-73
2021/10/26 01:44:47;;;;;;;12.55;10.43;;;11.50;94.90;;;;;;4995643;28;20693;-73
2021/10/26 01:47:14;;;;;;;12.80;10.48;;;11.40;95.50;;;;;;4996000;28;20295;-73
2021/10/26 01:49:41;;;;;;;12.05;10.32;;;11.40;95.80;;;;;;4995671;28;20236;-73
2021/10/26 01:52:08;;;;;;;13.18;10.23;;;11.40;96.20;;;;;;4994900;28;20294;-73
2021/10/26 01:54:38;;;;;;;11.98;9.85;;;11.40;96.90;;;;;;4995043;28;20241;-73
2021/10/26 01:57:06;;;;;;;10.90;9.77;;;11.30;97.20;;;;;;4994450;28;20265;-74
2021/10/26 01:59:33;;;;;;;13.52;10.35;;;11.30;97.50;;;;;;4993752;28;20208;-73
2021/10/26 02:02:01;;;;;;;13.38;10.90;;;11.30;97.70;;;;;;4994839;28;20239;-73
2021/10/26 02:04:29;;;;;;;12.20;10.27;;;11.30;98.30;;;;;;4997929;28;20230;-74
2021/10/26 02:06:56;;;;;;;14.52;10.30;;;11.30;98.70;;;;;;4994610;28;20254;-73
2021/10/26 02:09:23;;;;;;;13.00;10.30;;;11.30;98.90;;;;;;4994089;28;20713;-73
2021/10/26 02:11:51;;;;;;;12.85;10.95;;;11.30;99.00;;;;;;4994353;28;20323;-73
2021/10/26 02:14:18;;;;;;;13.85;10.63;;;11.30;99.00;;;;;;4994921;28;20304;-73
2021/10/26 02:16:45;;;;;;;13.40;10.25;;;11.40;99.00;;;;;;4994646;28;20208;-73
2021/10/26 02:19:12;;;;;;;12.63;9.65;;;11.30;99.00;;;;;;4994072;28;20219;-73
2021/10/26 02:21:39;;;;;;;15.38;11.30;;;11.30;99.00;;;;;;4994309;28;20240;-73
2021/10/26 02:24:06;;;;;;;13.77;10.80;;;11.30;99.50;;;;;;4994260;28;20231;-73
2021/10/26 02:26:34;;;;;;;15.05;11.48;;;11.30;99.50;;;;;;4994589;28;20206;-73
2021/10/26 02:29:02;;;;;;;12.85;10.13;;;11.30;99.80;;;;;;4993915;28;20250;-73
2021/10/26 02:31:29;;;;;;;13.43;10.68;;;11.30;99.80;;;;;;4994059;28;20737;-74
2021/10/26 02:33:56;;;;;;;15.48;11.07;;;11.30;99.90;;;;;;4994230;28;20305;-73
2021/10/26 02:36:23;;;;;;;13.88;11.15;;;11.30;99.90;;;;;;4994002;28;20238;-73
2021/10/26 02:38:50;;;;;;;13.07;10.45;;;11.40;99.90;;;;;;4993653;28;20688;-73
2021/10/26 02:41:17;;;;;;;12.65;10.15;;;11.30;99.80;;;;;;4994450;28;20231;-74
2021/10/26 02:43:44;;;;;;;14.70;11.32;;;11.40;99.90;;;;;;4993823;28;20279;-73
2021/10/26 02:46:13;;;;;;;12.30;9.18;;;11.40;99.90;;;;;;4994532;28;20205;-73
2021/10/26 02:48:40;;;;;;;13.95;10.32;;;11.40;99.70;;;;;;4994115;28;20213;-74
2021/10/26 02:51:07;;;;;;;12.20;10.43;;;11.40;99.50;;;;;;4994719;28;20248;-73
2021/10/26 02:53:35;;;;;;;17.73;11.48;;;11.40;99.20;;;;;;4995635;28;20241;-74
2021/10/26 02:56:02;;;;;;;15.00;10.90;;;11.50;99.10;;;;;;4996710;28;20203;-73
2021/10/26 02:58:29;;;;;;;13.63;10.82;;;11.50;98.20;;;;;;4997867;28;20257;-74
2021/10/26 03:00:55;;;;;;;13.57;10.10;;;11.50;97.80;;;;;;5000163;28;20231;-73
2021/10/26 03:03:24;;;;;;;11.45;10.25;;;11.50;97.30;;;;;;4999354;28;20221;-73
2021/10/26 03:05:51;;;;;;;11.13;9.40;;;11.50;97.30;;;;;;5000501;28;20235;-72
2021/10/26 03:08:18;;;;;;;11.57;9.27;;;11.50;97.20;;;;;;4998851;28;20306;-74
2021/10/26 03:10:45;;;;;;;12.25;10.77;;;11.50;96.50;;;;;;5010054;28;20236;-74
2021/10/26 03:13:41;;;;;;;14.45;10.82;;;11.60;96.30;;;;;;5008840;28;20216;-74
2021/10/26 03:16:08;;;;;;;13.95;10.57;;;11.60;95.80;;;;;;5012769;28;20208;-74
2021/10/26 03:18:36;;;;;;;12.88;9.88;;;11.50;95.50;;;;;;5012711;28;20219;-73
2021/10/26 03:21:03;;;;;;;13.43;10.45;;;11.50;95.50;;;;;;4995877;28;20234;-73
2021/10/26 03:23:30;;;;;;;11.63;10.05;;;11.60;95.50;;;;;;4995062;28;20208;-73
2021/10/26 03:25:58;;;;;;;12.93;9.15;;;11.60;95.50;;;;;;4993990;28;20730;-73
2021/10/26 03:28:25;;;;;;;11.00;8.95;;;11.60;95.40;;;;;;4994207;28;20211;-74
2021/10/26 03:30:52;;;;;;;11.15;9.07;;;11.60;95.10;;;;;;4994755;28;20225;-74
2021/10/26 03:33:19;;;;;;;11.35;8.80;;;11.60;94.80;;;;;;4994622;28;20270;-73
2021/10/26 03:35:47;;;;;;;10.98;8.43;;;11.60;94.80;;;;;;4999317;28;20743;-73
2021/10/26 03:38:17;;;;;;;11.32;9.85;;;11.70;94.80;;;;;;5009759;28;20210;-74
2021/10/26 03:40:43;;;;;;;14.55;9.80;;;11.60;94.40;;;;;;5029765;28;20294;-73
2021/10/26 03:43:10;;;;;;;11.35;8.80;;;11.60;94.40;;;;;;5006651;28;20217;-75
2021/10/26 03:45:37;;;;;;;11.77;8.52;;;11.60;94.50;;;;;;5013778;28;20237;-75
2021/10/26 03:48:05;;;;;;;12.10;8.25;;;11.60;94.50;;;;;;5014245;28;20217;-74
2021/10/26 03:50:32;;;;;;;9.57;8.20;;;11.60;94.30;;;;;;5032793;28;20289;-74
2021/10/26 03:53:00;;;;;;;8.93;8.02;;;11.60;94.30;;;;;;5032458;28;20295;-74
2021/10/26 03:55:27;;;;;;;10.48;9.38;;;11.50;95.00;;;;;;4993731;28;20200;-75
2021/10/26 03:57:54;;;;;;;10.75;8.50;;;11.50;94.90;;;;;;4993889;28;20214;-74
2021/10/26 04:00:21;;;;;;;11.32;8.93;;;11.40;95.20;;;;;;5029759;28;20221;-74
2021/10/26 04:02:50;;;;;;;9.95;8.48;;;11.40;95.50;;;;;;5029359;28;20590;-74
2021/10/26 04:05:21;;;;;;;9.68;7.70;;;11.40;95.50;;;;;;5012754;28;20234;-74
2021/10/26 04:07:53;;;;;;;12.00;9.32;;;11.30;95.90;;;;;;5012488;28;20929;-74
2021/10/26 04:10:31;;;;;;;8.85;7.90;;;11.40;96.30;;;;;;5012229;28;20309;-73
2021/10/26 04:13:02;;;;;;;13.25;8.70;;;11.40;96.40;;;;;;5015911;28;20203;-73
2021/10/26 04:15:29;;;;;;;10.75;8.30;;;11.30;96.70;;;;;;5033014;28;20284;-74
2021/10/26 04:17:56;;;;;;;11.20;7.93;;;11.30;97.20;;;;;;5030206;28;20214;-74
2021/10/26 04:20:23;;;;;;;10.13;7.10;;;11.30;97.20;;;;;;5012339;28;20217;-74
2021/10/26 04:22:49;;;;;;;9.10;8.20;;;11.40;97.60;;;;;;5016405;28;20317;-75
2021/10/26 04:25:16;;;;;;;8.75;7.25;;;11.40;97.20;;;;;;5035850;28;20665;-74
2021/10/26 04:27:45;;;;;;;8.07;7.25;;;11.40;97.20;;;;;;5035951;28;20297;-74
2021/10/26 04:30:12;;;;;;;10.50;8.15;;;11.40;97.20;;;;;;5013868;28;20208;-76
2021/10/26 04:32:39;;;;;;;9.48;8.48;;;11.30;97.00;;;;;;5016005;28;20241;-74
2021/10/26 04:35:07;;;;;;;11.52;8.27;;;11.40;96.80;;;;;;5016493;28;20267;-75
2021/10/26 04:37:35;;;;;;;12.07;8.57;;;11.30;96.80;;;;;;5016375;28;20212;-74
2021/10/26 04:40:02;;;;;;;11.98;8.30;;;11.30;97.00;;;;;;5021749;28;20242;-74
2021/10/26 04:42:29;;;;;;;11.45;8.57;;;11.20;97.10;;;;;;5020187;28;20256;-75
2021/10/26 04:44:57;;;;;;;9.82;8.38;;;11.20;97.10;;;;;;5024167;28;20233;-74
2021/10/26 04:47:26;;;;;;;11.48;9.65;;;11.20;97.20;;;;;;5022567;28;20244;-75
2021/10/26 04:49:53;;;;;;;11.90;8.60;;;11.20;97.20;;;;;;5021380;28;20214;-75
2021/10/26 04:52:20;;;;;;;15.27;9.35;;;11.10;97.50;;;;;;5016480;28;20230;-73
2021/10/26 04:54:47;;;;;;;12.55;8.63;;;11.10;98.00;;;;;;5017602;28;20203;-73
2021/10/26 04:57:14;;;;;;;12.57;8.77;;;11.10;98.50;;;;;;5016916;28;20208;-74
2021/10/26 04:59:41;;;;;;;11.60;9.07;;;11.10;98.60;;;;;;5016459;28;20217;-75
2021/10/26 05:02:09;;;;;;;11.40;9.07;;;11.00;98.80;;;;;;5016570;28;20313;-73
2021/10/26 05:04:36;;;;;;;14.65;9.20;;;11.00;99.20;;;;;;5016520;28;20210;-74
2021/10/26 05:07:03;;;;;;;11.82;9.18;;;10.90;99.60;;;;;;5015386;28;20226;-74
2021/10/26 05:09:30;;;;;;;11.35;9.98;;;10.90;99.90;;;;;;5016423;28;20241;-74
2021/10/26 05:11:57;;;;;;;11.20;9.25;;;10.90;99.90;;;;;;5015523;28;20602;-74
2021/10/26 05:14:24;;;;;;;11.68;9.80;;;10.90;99.90;;;;;;5016598;28;20574;-74
2021/10/26 05:16:51;;;;;;;12.90;10.48;;;10.80;99.90;;;;;;5017634;28;20304;-74
2021/10/26 05:19:21;;;;;;;12.77;10.70;;;10.90;99.90;;;;;;5016977;28;20591;-74
2021/10/26 05:21:48;;;;;;;11.40;10.20;;;10.80;99.90;;;;;;5016139;28;20241;-75
2021/10/26 05:24:15;;;;;;;11.60;10.40;;;10.80;99.90;;;;;;5016427;28;20570;-75
2021/10/26 05:26:42;;;;;;;12.63;9.65;;;10.70;99.90;;;;;;5015772;28;20242;-75
2021/10/26 05:29:09;;;;;;;11.52;10.30;;;10.70;99.90;;;;;;5015584;28;20288;-75
2021/10/26 05:31:37;;;;;;;14.10;10.68;;;10.70;99.90;;;;;;5015670;28;20236;-74
2021/10/26 05:34:06;;;;;;;12.57;10.30;;;10.70;99.90;;;;;;5015076;28;20249;-74
2021/10/26 05:36:34;;;;;;;13.63;10.65;;;10.60;99.90;;;;;;5015599;28;20567;-75
2021/10/26 05:39:01;;;;;;;12.63;10.50;;;10.70;99.90;;;;;;5017164;28;20213;-75
2021/10/26 05:41:29;;;;;;;17.17;11.57;;;10.80;99.90;;;;;;5020286;28;20317;-76
2021/10/26 05:43:55;;;;;;;18.40;11.50;;;10.80;99.90;;;;;;5016253;28;20300;-75
2021/10/26 05:46:22;;;;;;;12.20;10.65;;;10.90;99.90;;;;;;5016541;28;20238;-74
2021/10/26 05:48:49;;;;;;;12.23;10.35;;;10.90;99.90;;;;;;5016684;28;20217;-75
2021/10/26 05:51:17;;;;;;;14.63;11.80;;;10.90;99.90;;;;;;5019443;28;20239;-75
2021/10/26 05:53:58;;;;;;;16.05;9.60;;;10.90;99.90;;;;;;5017793;28;20290;-74
2021/10/26 05:56:25;;;;;;;12.63;10.15;;;11.00;99.90;;;;;;5021724;28;20672;-76
2021/10/26 05:58:54;;;;;;;13.40;10.23;;;11.00;99.90;;;;;;5021046;28;20210;-75
2021/10/26 06:01:22;;;;;;;16.52;11.18;;;11.10;99.90;;;;;;5022649;28;20242;-75
2021/10/26 06:03:49;;;;;;;11.70;10.30;;;11.10;99.90;;;;;;5018780;28;20544;-75
2021/10/26 06:06:16;;;;;;;14.25;10.05;;;11.10;99.90;;;;;;5022610;28;20250;-75
2021/10/26 06:08:43;;;;;;;11.38;9.60;;;11.20;99.90;;;;;;5033498;28;20207;-75
2021/10/26 06:11:13;;;;;;;12.60;9.80;;;11.20;99.90;;;;;;5024987;28;20714;-74
2021/10/26 06:13:43;;;;;;;14.48;10.43;;;11.30;99.90;;;;;;5018270;28;20262;-74
2021/10/26 06:16:10;;;;;;;11.13;9.80;;;11.30;99.90;;;;;;5017391;28;20644;-74
2021/10/26 06:18:37;;;;;;;13.98;10.80;;;11.40;99.50;;;;;;5017145;28;20211;-74
2021/10/26 06:21:04;;;;;;;15.02;9.85;;;11.40;99.30;;;;;;5016768;28;20230;-74
2021/10/26 06:23:31;;;;;;;18.75;10.32;;;11.40;98.50;;;;;;5017298;28;20214;-75
2021/10/26 06:25:59;;;;;;;13.52;11.18;;;11.40;98.30;;;;;;5016815;28;20596;-73
2021/10/26 06:28:28;;;;;;;13.18;9.57;;;11.40;97.90;;;;;;5016177;28;20214;-75
2021/10/26 06:30:56;;;;;;;12.45;9.70;;;11.40;97.40;;;;;;5016493;28;20663;-73
2021/10/26 06:33:23;;;;;;;14.35;10.43;;;11.40;97.20;;;;;;5016427;28;20250;-73
2021/10/26 06:35:49;;;;;;;15.85;11.60;;;11.40;97.20;;;;;;5017573;28;20201;-75
2021/10/26 06:38:16;;;;;;;17.27;11.07;;;11.30;97.20;;;;;;5016619;28;20217;-74
2021/10/26 06:40:43;;;;;;;17.45;10.20;;;11.40;97.60;;;;;;5022452;28;20228;-74
2021/10/26 06:43:10;;;;;;;10.90;9.63;;;11.30;97.80;;;;;;5028404;28;20271;-75
2021/10/26 06:45:38;;;;;;;14.55;10.57;;;11.40;97.60;;;;;;5024847;28;20239;-75
2021/10/26 06:48:05;;;;;;;15.23;10.65;;;11.30;97.80;;;;;;5019056;28;20222;-75
2021/10/26 06:50:32;;;;;;;14.85;10.38;;;11.30;98.40;;;;;;5014541;28;20225;-75
2021/10/26 06:53:00;;;;;;;11.80;9.68;;;11.30;98.60;;;;;;5016072;28;20225;-74
2021/10/26 06:55:27;;;;;;;15.02;11.15;;;11.40;98.60;;;;;;5021402;28;20220;-76
2021/10/26 06:57:54;;;;;;;13.63;9.68;;;11.40;98.80;;;;;;5022269;28;20210;-75
2021/10/26 07:00:23;;;;;;;15.45;10.15;;;11.50;98.70;;;;;;5021064;28;20270;-75
2021/10/26 07:02:52;;;;;;;11.63;10.43;;;11.60;98.60;;;;;;5021244;28;20237;-74
2021/10/26 07:05:21;;;;;;;13.88;11.55;;;11.70;98.20;;;;;;5021648;28;20223;-74
2021/10/26 07:07:48;;;;;;;13.73;11.10;;;11.90;97.60;;;;;;5014269;28;20216;-73
2021/10/26 07:10:16;;;;;;;11.90;10.30;;;12.00;96.30;;;;;;5013509;28;20621;-74
2021/10/26 07:12:43;;;;;;;14.73;10.60;;;12.00;95.60;;;;;;5014107;28;20227;-74
2021/10/26 07:15:13;;;;;;;12.13;10.50;;;12.00;94.80;;;;;;5014033;28;20212;-74
2021/10/26 07:17:41;;;;;;;15.95;10.88;;;12.10;94.60;;;;;;5013724;28;20281;-73
2021/10/26 07:20:12;;;;;;;16.25;11.88;;;12.20;94.00;;;;;;5013304;28;20250;-74
2021/10/26 07:22:39;;;;;;;12.50;11.30;;;12.10;94.30;;;;;;5017556;28;20266;-74
2021/10/26 07:25:10;;;;;;;15.20;10.35;;;12.10;95.30;;;;;;5023379;28;20208;-74
2021/10/26 07:27:39;;;;;;;17.67;11.48;;;12.10;95.90;;;;;;5015297;28;20257;-74
2021/10/26 07:30:07;;;;;;;16.10;11.93;;;12.20;96.10;;;;;;5014298;28;20267;-74
2021/10/26 07:32:35;;;;;;;14.45;11.88;;;12.20;95.80;;;;;;5046913;22;20338;-74
2021/10/26 07:35:02;;;;;;;15.13;11.38;;;12.30;95.80;;;;;;5032403;28;20217;-75
2021/10/26 07:37:34;;;;;;;13.93;11.25;;;12.40;95.90;;;;;;5032823;28;20293;-74
2021/10/26 07:40:00;;;;;;;14.90;12.48;;;12.40;95.10;;;;;;5032413;28;20239;-74
2021/10/26 07:42:27;;;;;;;15.75;12.25;;;12.50;94.80;;;;;;5032599;28;20594;-76
2021/10/26 07:44:54;;;;;;;15.65;10.98;;;12.50;94.20;;;;;;5032539;28;20211;-75
2021/10/26 07:47:22;;;;;;;15.68;11.80;;;12.50;94.10;;;;;;5032616;28;20317;-73
2021/10/26 07:49:50;;;;;;;17.25;11.55;;;12.50;94.40;;;;;;5031899;28;20261;-75
2021/10/26 07:52:18;;;;;;;14.10;11.52;;;12.60;94.20;;;;;;5032240;28;20284;-74
2021/10/26 07:54:52;;;;;;;18.40;11.40;;;12.80;94.30;;;;;;5033267;28;20542;-74
2021/10/26 07:57:19;;;;;;;13.32;11.00;;;13.00;93.50;;;;;;5035362;28;20234;-76
2021/10/26 07:59:46;;;;;;;15.65;11.13;;;13.00;92.30;;;;;;5036937;28;20214;-75
2021/10/26 08:02:14;;;;;;;12.82;11.38;;;13.10;90.90;;;;;;5036157;28;20317;-76
2021/10/26 08:04:43;;;;;;;13.98;11.10;;;13.10;90.50;;;;;;5036516;28;20207;-74
2021/10/26 08:07:10;;;;;;;14.27;9.82;;;13.20;90.50;;;;;;5036045;28;20262;-75
2021/10/26 08:09:37;;;;;;;13.43;10.95;;;13.40;89.20;;;;;;5043287;28;20214;-74
2021/10/26 08:12:06;;;;;;;14.98;11.00;;;13.50;87.90;;;;;;5046678;28;20235;-77
2021/10/26 08:14:33;;;;;;;14.38;9.88;;;13.70;86.70;;;;;;5050186;28;20270;-74
2021/10/26 08:17:00;;;;;;;12.25;10.30;;;13.80;85.90;;;;;;5037698;28;20558;-75
2021/10/26 08:19:27;;;;;;;14.05;10.85;;;13.70;83.90;;;;;;5037983;28;20207;-74
2021/10/26 08:21:54;;;;;;;17.65;9.82;;;13.90;83.10;;;;;;5046451;28;20234;-78
2021/10/26 08:24:22;;;;;;;13.50;9.88;;;14.10;80.80;;;;;;5048876;28;20242;-74
2021/10/26 08:26:57;;;;;;;13.43;10.20;;;14.30;78.60;;;;;;5035376;28;20774;-75
2021/10/26 08:29:36;;;;;;;13.68;10.57;;;14.30;76.90;;;;;;5036245;28;20211;-73
2021/10/26 08:32:25;;;;;;;12.45;10.45;;;14.10;77.00;;;;;;5038332;28;20289;-75
2021/10/26 08:35:03;;;;;;;13.65;10.35;;;14.00;77.00;;;;;;5045373;28;20246;-74
2021/10/26 08:37:45;;;;;;;13.77;9.70;;;14.10;78.40;;;;;;5046725;28;20226;-73
2021/10/26 08:40:12;;;;;;;12.85;9.38;;;13.90;79.10;;;;;;5039260;28;20215;-74
2021/10/26 08:42:39;;;;;;;13.80;10.23;;;13.90;78.80;;;;;;5036491;28;20250;-74
2021/10/26 08:45:09;;;;;;;14.13;10.30;;;13.90;79.80;;;;;;5036650;28;20203;-75
2021/10/26 08:47:37;;;;;;;11.70;10.30;;;13.80;79.70;;;;;;5036339;28;20273;-74
2021/10/26 08:50:05;;;;;;;13.52;9.52;;;13.70;79.70;;;;;;5035388;28;20211;-75
2021/10/26 08:52:32;;;;;;;11.90;9.73;;;13.70;79.70;;;;;;5035644;28;20317;-74
2021/10/26 08:55:00;;;;;;;12.07;9.32;;;13.80;79.70;;;;;;5036620;28;20727;-74
2021/10/26 08:57:28;;;;;;;12.77;9.93;;;13.70;79.70;;;;;;5039062;28;20213;-75
2021/10/26 09:00:07;;;;;;;12.60;9.48;;;13.70;79.70;;;;;;5045925;28;20202;-74
2021/10/26 09:02:43;;;;;;;16.38;10.38;;;13.80;79.70;;;;;;5037353;28;20305;-75
2021/10/26 09:05:12;;;;;;;13.98;10.60;;;13.90;79.80;;;;;;5039921;28;20591;-74
2021/10/26 09:07:39;;;;;;;17.08;11.10;;;14.00;79.90;;;;;;5042652;28;20317;-74
2021/10/26 09:10:14;;;;;;;13.32;10.60;;;13.90;79.80;;;;;;5052658;28;20239;-75
2021/10/26 09:18:25;;;;;;;12.05;10.77;;;14.20;78.40;;;;;;5039620;28;20725;-75
2021/10/26 09:20:52;;;;;;;15.07;10.40;;;14.30;77.20;;;;;;5049922;28;20688;-75
2021/10/26 09:23:26;;;;;;;13.83;10.17;;;14.30;75.90;;;;;;5035824;28;20296;-75
2021/10/26 09:25:58;;;;;;;13.57;10.70;;;14.30;75.60;;;;;;5035917;28;20834;-75
2021/10/26 09:28:26;;;;;;;13.63;10.52;;;14.30;76.10;;;;;;5035769;28;20247;-74
2021/10/26 09:31:04;;;;;;;12.20;10.27;;;14.30;76.60;;;;;;5035575;28;20209;-76
2021/10/26 09:33:35;;;;;;;17.30;10.45;;;14.50;76.70;;;;;;5035555;28;20198;-75
2021/10/26 09:36:21;;;;;;;12.27;10.57;;;14.60;74.80;;;;;;5034927;28;20212;-75
2021/10/26 09:38:48;;;;;;;13.55;10.05;;;14.50;75.00;;;;;;5035794;28;20210;-75
2021/10/26 09:41:15;;;;;;;16.35;10.27;;;14.50;74.50;;;;;;5035654;28;20264;-74
2021/10/26 09:43:42;;;;;;;11.93;9.45;;;14.50;75.20;;;;;;5036238;28;20213;-76
2021/10/26 09:46:08;;;;;;;12.00;10.05;;;14.70;75.60;;;;;;5036059;28;20747;-75
2021/10/26 09:48:37;;;;;;;14.73;9.75;;;14.70;73.60;;;;;;5037740;28;20211;-74
2021/10/26 09:51:09;;;;;;;15.93;10.77;;;14.60;73.90;;;;;;5036771;28;20203;-74
2021/10/26 09:53:36;;;;;;;13.10;9.40;;;14.50;75.00;;;;;;5037265;28;20747;-74
2021/10/26 09:56:04;;;;;;;11.57;9.55;;;14.40;74.10;;;;;;5040187;28;20204;-74
2021/10/26 09:58:33;;;;;;;12.63;9.52;;;14.20;75.40;;;;;;5040932;28;20275;-75
2021/10/26 10:01:07;;;;;;;13.63;9.02;;;14.10;76.60;;;;;;5038067;28;20250;-75
2021/10/26 10:03:34;;;;;;;11.98;9.38;;;14.10;77.90;;;;;;5039311;28;20206;-75
2021/10/26 10:06:04;;;;;;;12.55;9.77;;;14.10;78.30;;;;;;5039623;28;20215;-75
2021/10/26 10:08:34;;;;;;;10.80;9.20;;;14.00;78.90;;;;;;5037575;28;20253;-76
2021/10/26 10:11:11;;;;;;;14.00;10.60;;;14.30;79.90;;;;;;5036297;28;20242;-75
2021/10/26 10:13:39;;;;;;;13.82;9.90;;;14.40;78.00;;;;;;5037332;28;20210;-75
2021/10/26 10:16:08;;;;;;;10.98;9.13;;;14.60;76.30;;;;;;5048345;28;20211;-75
2021/10/26 10:18:36;;;;;;;13.63;9.60;;;14.70;74.70;;;;;;5036348;28;20211;-75
2021/10/26 10:21:05;;;;;;;11.38;10.27;;;14.70;73.90;;;;;;5036401;28;20529;-75
2021/10/26 10:23:34;;;;;;;11.05;8.98;;;14.70;74.80;;;;;;5037184;28;20261;-75
2021/10/26 10:26:02;;;;;;;13.13;9.77;;;14.80;73.90;;;;;;5037092;28;20276;-73
2021/10/26 10:28:33;;;;;;;12.10;8.75;;;14.80;73.40;;;;;;5036253;28;21015;-74
2021/10/26 10:31:02;;;;;;;10.45;9.35;;;14.70;72.10;;;;;;5039968;28;20231;-74
2021/10/26 10:33:29;;;;;;;11.95;9.63;;;14.60;73.10;;;;;;5040033;28;20207;-76
2021/10/26 10:35:58;;;;;;;13.70;9.60;;;14.60;73.90;;;;;;5035554;28;20235;-74
2021/10/26 10:38:27;;;;;;;10.20;8.88;;;14.70;74.10;;;;;;5034886;28;20253;-74
2021/10/26 10:41:26;;;;;;;8.95;8.00;;;14.60;73.10;;;;;;5034234;28;20207;-75
2021/10/26 10:43:55;;;;;;;12.77;7.75;;;14.70;74.30;;;;;;5034754;28;20244;-74
2021/10/26 10:46:39;;;;;;;12.45;9.25;;;14.90;73.00;;;;;;5033374;28;20254;-75
2021/10/26 10:49:39;;;;;;;12.20;8.57;;;15.10;72.20;;;;;;5033633;28;20668;-75
2021/10/26 10:52:08;;;;;;;12.70;7.30;;;15.10;70.40;;;;;;5033172;28;20228;-75
2021/10/26 10:54:48;;;;;;;8.60;7.20;;;15.00;71.20;;;;;;5034003;28;20679;-75
2021/10/26 10:57:20;;;;;;;9.50;6.67;;;15.10;70.60;;;;;;5035091;28;20225;-74
2021/10/26 10:59:48;;;;;;;8.57;7.35;;;15.30;69.70;;;;;;5035021;28;20464;-74
2021/10/26 11:02:25;;;;;;;7.50;6.60;;;15.20;69.50;;;;;;5033401;28;20806;-75
2021/10/26 11:04:55;;;;;;;9.95;6.13;;;15.30;68.60;;;;;;5033297;28;20194;-73
2021/10/26 11:07:51;;;;;;;9.50;6.40;;;15.30;68.30;;;;;;5033164;28;20312;-75
2021/10/26 11:10:22;;;;;;;8.80;6.13;;;15.40;67.80;;;;;;5032742;28;20947;-75
2021/10/26 11:12:51;;;;;;;7.23;5.70;;;15.50;67.70;;;;;;5047039;28;20463;-75
2021/10/26 11:15:25;;;;;;;6.97;5.53;;;15.50;66.70;;;;;;5033432;28;20504;-75
2021/10/26 11:17:57;;;;;;;9.00;5.27;;;15.60;66.80;;;;;;5033542;28;20461;-76
2021/10/26 11:20:46;;;;;;;8.83;5.63;;;15.70;66.80;;;;;;5033993;28;20461;-75
2021/10/26 11:23:28;;;;;;;9.00;5.40;;;15.80;65.80;;;;;;5036839;28;20483;-75
2021/10/26 11:26:00;;;;;;;8.20;5.80;;;15.80;64.30;;;;;;5033735;28;20455;-74
2021/10/26 11:28:49;;;;;;;8.20;4.73;;;15.70;65.20;;;;;;5032757;28;20574;-75
2021/10/26 11:31:23;;;;;;;5.80;5.27;;;15.80;64.60;;;;;;5032409;28;20468;-75
2021/10/26 11:33:53;;;;;;;9.10;5.80;;;15.80;64.60;;;;;;5036920;28;20498;-75
2021/10/26 11:36:20;;;;;;;7.60;6.10;;;15.80;64.30;;;;;;5033109;28;20554;-74
2021/10/26 11:38:51;;;;;;;7.27;5.80;;;15.80;65.90;;;;;;5032472;28;20461;-75
2021/10/26 11:41:25;;;;;;;9.40;6.07;;;15.80;66.20;;;;;;5032434;28;20571;-75
2021/10/26 11:43:55;;;;;;;11.30;5.93;;;15.90;64.90;;;;;;5033782;28;20504;-75
2021/10/26 11:46:28;;;;;;;5.70;5.20;;;16.00;64.10;;;;;;5043292;28;20508;-75
2021/10/26 11:48:58;;;;;;;9.00;5.37;;;16.00;64.10;;;;;;5032119;28;20492;-74
2021/10/26 11:51:27;;;;;;;8.63;6.03;;;15.80;64.60;;;;;;5033107;28;20483;-75
2021/10/26 11:53:56;;;;;;;7.23;5.10;;;15.70;65.00;;;;;;5032614;28;20463;-74
2021/10/26 11:56:28;;;;;;;6.87;6.03;;;15.60;65.40;;;;;;5032575;28;20446;-74
2021/10/26 11:59:12;;;;;;;7.50;5.87;;;15.80;66.10;;;;;;5032428;28;20539;-74
2021/10/26 12:01:47;;;;;;;5.97;4.63;;;15.90;64.80;;;;;;5032371;28;20970;-76
2021/10/26 12:04:16;;;;;;;17.50;5.50;;;16.10;64.20;;;;;;5032746;28;20518;-74
2021/10/26 12:06:44;;;;;;;6.50;5.50;;;16.20;64.30;;;;;;5040381;28;20427;-77
2021/10/26 12:09:12;;;;;;;7.83;5.23;;;16.20;64.30;;;;;;5047408;28;20587;-75
2021/10/26 12:11:43;;;;;;;6.87;4.53;;;16.20;64.30;;;;;;5034273;28;20481;-77
2021/10/26 12:14:15;;;;;;;7.50;4.40;;;16.00;64.10;;;;;;5032751;28;20456;-75
2021/10/26 12:16:58;;;;;;;7.27;4.90;;;16.00;64.10;;;;;;5032602;28;20507;-74
2021/10/26 12:19:29;;;;;;;5.43;4.20;;;16.00;64.10;;;;;;5032556;28;20456;-74
2021/10/26 12:21:57;;;;;;;7.60;4.17;;;16.10;63.80;;;;;;5032196;28;20975;-74
2021/10/26 12:24:25;;;;;;;8.07;4.20;;;16.20;64.30;;;;;;5032185;28;20825;-74
2021/10/26 12:27:01;;;;;;;7.20;4.90;;;16.10;63.00;;;;;;5032242;28;20574;-73
2021/10/26 12:29:32;;;;;;;5.23;4.40;;;15.80;64.00;;;;;;5032527;28;20482;-74
2021/10/26 12:31:59;;;;;;;11.35;5.57;;;15.80;64.00;;;;;;5032200;28;20487;-74
2021/10/26 12:34:26;;;;;;;5.70;4.93;;;15.70;63.90;;;;;;5032356;28;20271;-74
2021/10/26 12:36:53;;;;;;;5.90;4.70;;;15.80;64.00;;;;;;5032010;28;21056;-75
2021/10/26 12:39:28;;;;;;;7.00;3.63;;;15.90;64.00;;;;;;5032038;28;20477;-74
2021/10/26 12:41:58;;;;;;;4.27;3.87;;;16.00;64.10;;;;;;5032889;28;20491;-74
2021/10/26 12:44:29;;;;;;;5.33;4.37;;;16.00;64.10;;;;;;5035886;28;20989;-74
2021/10/26 12:47:05;;;;;;;10.60;4.30;;;16.00;64.10;;;;;;5035991;28;20445;-73
2021/10/26 12:49:38;;;;;;;7.77;4.30;;;15.90;64.00;;;;;;5035212;28;20543;-75